createdAt,value
2023-05-24T00:00:36.875Z,4.88
2023-05-24T00:03:07.124Z,4.70
2023-05-24T00:05:37.805Z,5.20
2023-05-24T00:08:06.015Z,4.07
2023-05-24T00:10:34.147Z,4.63
2023-05-24T00:13:02.252Z,4.60
2023-05-24T00:15:30.336Z,4.38
2023-05-24T00:17:58.459Z,4.13
2023-05-24T00:20:28.021Z,3.75
2023-05-24T00:22:56.141Z,4.88
2023-05-24T00:25:24.332Z,4.32
2023-05-24T00:27:52.420Z,3.92
2023-05-24T00:30:20.888Z,3.97
2023-05-24T00:32:49.012Z,4.07
2023-05-24T00:35:17.169Z,3.95
2023-05-24T00:37:46.713Z,4.03
2023-05-24T00:40:15.465Z,4.00
2023-05-24T00:42:43.570Z,3.63
2023-05-24T00:45:12.232Z,4.18
2023-05-24T00:47:40.370Z,4.28
2023-05-24T00:50:09.887Z,4.03
2023-05-24T00:52:38.309Z,4.63
2023-05-24T00:55:09.217Z,4.18
2023-05-24T00:57:37.870Z,5.05
2023-05-24T01:00:08.031Z,3.95
2023-05-24T01:02:36.360Z,4.18
2023-05-24T01:05:04.678Z,4.88
2023-05-24T01:07:40.567Z,3.83
2023-05-24T01:10:16.762Z,4.70
2023-05-24T01:12:54.846Z,4.63
2023-05-24T01:15:25.804Z,4.47
2023-05-24T01:18:02.905Z,4.45
2023-05-24T01:20:34.259Z,5.15
2023-05-24T01:23:08.688Z,4.03
2023-05-24T01:26:10.305Z,4.00
2023-05-24T01:28:40.945Z,3.67
2023-05-24T01:31:09.540Z,3.88
2023-05-24T01:33:42.574Z,3.70
2023-05-24T01:38:39.026Z,3.33
2023-05-24T01:41:13.568Z,3.13
2023-05-24T01:43:48.240Z,3.72
2023-05-24T01:46:34.326Z,4.82
2023-05-24T01:49:12.326Z,3.75
2023-05-24T01:51:46.213Z,3.38
2023-05-24T01:54:15.273Z,3.13
2023-05-24T01:56:45.849Z,3.70
2023-05-24T01:59:15.424Z,3.75
2023-05-24T02:01:43.543Z,3.60
2023-05-24T02:04:11.710Z,4.05
2023-05-24T02:06:39.842Z,3.65
2023-05-24T02:09:07.966Z,3.42
2023-05-24T02:11:36.290Z,3.80
2023-05-24T02:14:04.493Z,4.03
2023-05-24T02:16:34.014Z,4.00
2023-05-24T02:19:02.135Z,3.83
2023-05-24T02:21:30.354Z,3.10
2023-05-24T02:23:58.504Z,3.90
2023-05-24T02:26:26.586Z,3.08
2023-05-24T02:28:54.691Z,3.97
2023-05-24T02:31:22.905Z,3.85
2023-05-24T02:33:52.523Z,3.83
2023-05-24T02:36:20.600Z,4.47
2023-05-24T02:38:48.692Z,4.18
2023-05-24T02:41:18.277Z,3.67
2023-05-24T02:43:46.736Z,4.10
2023-05-24T02:46:15.035Z,3.20
2023-05-24T02:48:43.210Z,3.30
2023-05-24T02:51:12.676Z,4.05
2023-05-24T02:53:43.507Z,3.80
2023-05-24T02:56:13.745Z,4.00
2023-05-24T02:58:41.874Z,3.75
2023-05-24T03:01:09.975Z,3.60
2023-05-24T03:03:38.278Z,4.05
2023-05-24T03:06:07.792Z,3.78
2023-05-24T03:08:38.037Z,3.70
2023-05-24T03:11:06.577Z,3.65
2023-05-24T03:13:34.644Z,3.55
2023-05-24T03:16:02.835Z,4.18
2023-05-24T03:18:30.990Z,3.72
2023-05-24T03:20:59.179Z,4.35
2023-05-24T03:23:27.238Z,5.30
2023-05-24T03:25:56.832Z,4.32
2023-05-24T03:28:24.888Z,4.60
2023-05-24T03:30:53.127Z,4.93
2023-05-24T03:33:21.263Z,4.68
2023-05-24T03:35:49.342Z,5.20
2023-05-24T03:38:17.435Z,4.57
2023-05-24T03:40:45.533Z,4.53
2023-05-24T03:43:14.989Z,4.35
2023-05-24T03:45:43.287Z,4.20
2023-05-24T03:48:11.508Z,4.97
2023-05-24T03:50:39.719Z,5.40
2023-05-24T03:53:07.846Z,5.80
2023-05-24T03:55:36.082Z,5.13
2023-05-24T03:58:04.304Z,5.03
2023-05-24T04:00:33.815Z,4.50
2023-05-24T04:03:02.535Z,5.15
2023-05-24T04:05:30.697Z,5.25
2023-05-24T04:07:58.814Z,5.00
2023-05-24T04:10:26.912Z,5.93
2023-05-24T04:12:57.096Z,5.80
2023-05-24T04:15:25.334Z,5.00
2023-05-24T04:17:55.785Z,5.97
2023-05-24T04:20:38.898Z,5.45
2023-05-24T04:23:07.131Z,5.50
2023-05-24T04:25:35.281Z,5.07
2023-05-24T04:28:03.966Z,4.65
2023-05-24T04:30:32.120Z,6.05
2023-05-24T04:33:02.019Z,7.22
2023-05-24T04:35:30.252Z,4.43
2023-05-24T04:37:59.809Z,5.30
2023-05-24T04:40:27.972Z,4.40
2023-05-24T04:42:56.185Z,5.13
2023-05-24T04:45:25.008Z,5.55
2023-05-24T04:47:53.130Z,5.50
2023-05-24T04:50:22.653Z,15.15
2023-05-24T04:52:50.941Z,7.05
2023-05-24T04:55:19.055Z,6.20
2023-05-24T04:57:47.132Z,5.90
2023-05-24T05:00:16.057Z,5.30
2023-05-24T05:02:44.220Z,5.28
2023-05-24T05:05:12.736Z,3.95
2023-05-24T05:07:42.151Z,5.05
2023-05-24T05:10:10.771Z,5.40
2023-05-24T05:12:40.076Z,4.80
2023-05-24T05:15:09.830Z,4.50
2023-05-24T05:17:38.109Z,4.40
2023-05-24T05:20:07.450Z,5.07
2023-05-24T05:22:35.882Z,4.88
2023-05-24T05:25:05.780Z,4.45
2023-05-24T05:27:33.902Z,4.80
2023-05-24T05:30:02.118Z,5.72
2023-05-24T05:32:30.328Z,5.40
2023-05-24T05:34:58.473Z,6.85
2023-05-24T05:37:26.564Z,5.55
2023-05-24T05:39:54.626Z,5.30
2023-05-24T05:42:24.092Z,5.68
2023-05-24T05:44:52.717Z,6.03
2023-05-24T05:47:21.086Z,5.50
2023-05-24T05:49:49.175Z,5.68
2023-05-24T05:52:17.273Z,5.80
2023-05-24T05:54:45.396Z,5.32
2023-05-24T05:57:13.507Z,5.20
2023-05-24T05:59:43.007Z,5.28
2023-05-24T06:02:12.901Z,5.28
2023-05-24T06:04:41.222Z,5.25
2023-05-24T06:07:09.364Z,6.40
2023-05-24T06:09:37.504Z,5.85
2023-05-24T06:12:06.432Z,6.65
2023-05-24T06:14:34.609Z,6.97
2023-05-24T06:17:04.139Z,7.28
2023-05-24T06:19:32.810Z,6.47
2023-05-24T06:22:01.384Z,7.95
2023-05-24T06:24:29.719Z,10.18
2023-05-24T06:26:57.999Z,7.25
2023-05-24T06:29:26.171Z,8.75
2023-05-24T06:31:54.269Z,7.88
2023-05-24T06:34:23.877Z,8.02
2023-05-24T06:36:53.027Z,8.40
2023-05-24T06:39:21.274Z,8.20
2023-05-24T11:56:43.731Z,6.60
2023-05-24T11:59:16.516Z,5.75
2023-05-24T12:01:45.642Z,5.50
2023-05-24T12:04:13.962Z,5.78
2023-05-24T12:06:43.229Z,6.35
2023-05-24T12:09:13.569Z,5.80
2023-05-24T12:11:44.513Z,6.18
2023-05-24T12:14:15.877Z,6.05
2023-05-24T12:16:44.474Z,4.90
2023-05-24T12:19:31.730Z,5.03
2023-05-24T12:22:02.250Z,6.22
2023-05-24T12:24:32.764Z,5.85
2023-05-24T12:27:06.657Z,4.78
2023-05-24T12:29:36.600Z,5.97
2023-05-24T12:32:05.869Z,6.18
2023-05-24T12:34:34.183Z,6.75
2023-05-24T12:37:02.422Z,5.35
2023-05-24T12:39:34.153Z,6.07
2023-05-24T12:42:04.488Z,6.22
2023-05-24T12:44:34.790Z,6.78
2023-05-24T12:47:04.117Z,6.35
2023-05-24T12:49:32.810Z,6.10
2023-05-24T12:52:01.909Z,6.47
2023-05-24T12:54:30.529Z,6.57
2023-05-24T12:57:00.057Z,7.55
2023-05-24T12:59:29.993Z,5.80
2023-05-24T13:01:58.444Z,5.63
2023-05-24T13:04:27.728Z,6.07
2023-05-24T13:06:56.338Z,5.35
2023-05-24T13:09:26.019Z,5.90
2023-05-24T13:11:55.194Z,6.55
2023-05-24T13:14:23.359Z,5.47
2023-05-24T13:16:53.008Z,8.13
2023-05-24T13:19:21.688Z,5.82
2023-05-24T13:21:49.799Z,6.00
2023-05-24T13:24:18.083Z,5.63
2023-05-24T13:26:47.007Z,5.63
2023-05-24T13:31:46.448Z,6.88
2023-05-24T13:34:16.151Z,5.78
2023-05-24T13:36:44.311Z,5.75
2023-05-24T13:39:16.237Z,5.15
2023-05-24T13:41:45.822Z,5.07
2023-05-24T13:44:14.401Z,5.10
2023-05-24T13:46:43.325Z,5.13
2023-05-24T13:49:12.420Z,4.43
2023-05-24T13:51:42.225Z,5.70
2023-05-24T13:54:10.416Z,4.60
2023-05-24T13:56:39.822Z,4.60
2023-05-24T13:59:08.586Z,5.82
2023-05-24T14:01:38.158Z,6.07
2023-05-24T14:04:07.052Z,5.72
2023-05-24T14:06:37.524Z,6.13
2023-05-24T14:09:08.311Z,5.68
2023-05-24T14:11:36.645Z,5.75
2023-05-24T14:16:37.004Z,6.63
2023-05-24T14:19:05.673Z,5.75
2023-05-24T14:21:33.912Z,5.93
2023-05-24T14:24:02.070Z,5.75
2023-05-24T14:26:31.527Z,5.35
2023-05-24T14:28:59.669Z,5.45
2023-05-24T14:31:27.785Z,6.40
2023-05-24T14:33:56.395Z,5.47
2023-05-24T14:36:24.576Z,6.05
2023-05-24T14:38:52.714Z,5.80
2023-05-24T14:41:20.798Z,5.18
2023-05-24T14:43:51.156Z,5.43
2023-05-24T14:46:19.450Z,6.82
2023-05-24T14:48:47.606Z,6.60
2023-05-24T14:51:15.707Z,5.68
2023-05-24T14:53:43.807Z,5.50
2023-05-24T14:56:13.969Z,6.03
2023-05-24T14:58:42.188Z,5.45
2023-05-24T15:01:11.714Z,6.35
2023-05-24T15:03:39.943Z,5.25
2023-05-24T15:06:08.442Z,6.60
2023-05-24T15:08:36.566Z,5.22
2023-05-24T15:11:05.185Z,5.03
2023-05-24T15:13:33.648Z,6.57
2023-05-24T15:16:01.790Z,5.85
2023-05-24T15:18:32.321Z,5.65
2023-05-24T15:21:00.483Z,5.70
2023-05-24T15:23:28.732Z,6.22
2023-05-24T15:25:56.867Z,6.20
2023-05-24T15:28:26.367Z,6.45
2023-05-24T15:30:55.138Z,6.65
2023-05-24T15:33:23.399Z,7.18
2023-05-24T15:35:52.894Z,6.90
2023-05-24T15:38:20.962Z,6.13
2023-05-24T15:40:49.084Z,6.78
2023-05-24T15:43:20.116Z,6.13
2023-05-24T15:45:48.664Z,6.18
2023-05-24T15:48:16.838Z,5.82
2023-05-24T15:51:06.533Z,6.53
2023-05-24T15:53:34.575Z,6.43
2023-05-24T15:56:02.654Z,6.15
2023-05-24T15:58:31.011Z,6.82
2023-05-24T16:00:59.134Z,6.32
2023-05-24T16:03:27.416Z,5.80
2023-05-24T16:05:55.775Z,5.82
2023-05-24T16:08:27.792Z,6.82
2023-05-24T16:10:57.983Z,7.75
2023-05-24T16:13:26.383Z,7.07
2023-05-24T16:15:54.670Z,8.02
2023-05-24T16:18:23.671Z,8.00
2023-05-24T16:20:51.991Z,7.00
2023-05-24T16:23:23.122Z,7.50
2023-05-24T16:25:51.641Z,6.32
2023-05-24T16:28:24.283Z,7.80
2023-05-24T16:30:55.896Z,6.75
2023-05-24T16:33:25.440Z,8.93
2023-05-24T16:35:56.513Z,6.78
2023-05-24T16:38:25.545Z,7.80
2023-05-24T16:40:53.874Z,6.93
2023-05-24T16:43:23.363Z,6.53
2023-05-24T16:45:51.939Z,7.97
2023-05-24T16:48:21.774Z,7.95
2023-05-24T16:50:50.434Z,6.85
2023-05-24T16:53:20.389Z,7.07
2023-05-24T16:55:53.609Z,7.10
2023-05-24T16:58:23.676Z,7.20
2023-05-24T17:00:54.262Z,6.97
2023-05-24T17:03:27.726Z,6.55
2023-05-24T17:05:56.862Z,8.25
2023-05-24T17:08:27.496Z,7.57
2023-05-24T17:10:57.170Z,6.85
2023-05-24T17:13:27.738Z,7.70
2023-05-24T17:15:56.004Z,7.30
2023-05-24T17:18:29.019Z,8.65
2023-05-24T17:20:58.237Z,8.98
2023-05-24T17:23:26.979Z,6.78
2023-05-24T17:25:55.560Z,7.65
2023-05-24T17:28:27.766Z,7.78
2023-05-24T17:30:59.263Z,8.73
2023-05-24T17:33:28.181Z,7.10
2023-05-24T17:35:57.141Z,7.90
2023-05-24T17:38:25.806Z,8.07
2023-05-24T17:40:57.065Z,8.10
2023-05-24T17:43:28.906Z,8.27
2023-05-24T17:46:03.633Z,7.38
2023-05-24T17:48:32.568Z,7.32
2023-05-24T17:51:01.150Z,8.70
2023-05-24T17:53:31.814Z,9.00
2023-05-24T17:56:00.662Z,8.85
2023-05-24T17:58:30.707Z,7.78
2023-05-24T18:01:00.520Z,8.70
2023-05-24T18:03:28.765Z,7.97
2023-05-24T18:05:57.240Z,8.02
2023-05-24T18:08:26.063Z,7.47
2023-05-24T18:10:54.272Z,7.70
2023-05-24T18:13:22.524Z,8.18
2023-05-24T18:15:51.851Z,7.75
2023-05-24T18:18:21.595Z,8.38
2023-05-24T18:20:49.700Z,7.85
2023-05-24T18:23:17.964Z,8.50
2023-05-24T18:25:46.199Z,8.00
2023-05-24T18:28:14.471Z,8.07
2023-05-24T18:30:43.723Z,8.35
2023-05-24T18:33:12.101Z,8.00
2023-05-24T18:35:41.850Z,8.23
2023-05-24T18:38:10.083Z,9.25
2023-05-24T18:40:38.191Z,9.48
2023-05-24T18:43:06.361Z,7.30
2023-05-24T18:45:34.462Z,6.57
2023-05-24T18:48:02.694Z,7.90
2023-05-24T18:50:30.839Z,8.80
2023-05-24T18:53:00.323Z,7.75
2023-05-24T18:55:28.834Z,7.80
2023-05-24T18:57:56.955Z,8.38
2023-05-24T19:00:25.188Z,8.18
2023-05-24T19:02:55.435Z,7.88
2023-05-24T19:05:23.596Z,7.05
2023-05-24T19:07:51.729Z,8.02
2023-05-24T19:10:21.223Z,8.35
2023-05-24T19:12:49.487Z,7.20
2023-05-24T19:15:18.066Z,8.45
2023-05-24T19:17:46.211Z,7.97
2023-05-24T19:20:14.396Z,8.57
2023-05-24T19:22:42.557Z,9.27
2023-05-24T19:25:11.217Z,10.90
2023-05-24T19:27:54.780Z,9.43
2023-05-24T19:30:27.388Z,8.10
2023-05-24T19:32:55.795Z,8.57
2023-05-24T19:35:24.075Z,9.23
2023-05-24T19:37:53.746Z,8.55
2023-05-24T19:40:22.378Z,8.30
2023-05-24T19:42:52.350Z,6.90
2023-05-24T19:45:20.535Z,7.65
2023-05-24T19:47:48.664Z,34.50
2023-05-24T19:50:17.010Z,22.88
2023-05-24T19:52:45.211Z,11.73
2023-05-24T19:55:13.418Z,10.57
2023-05-24T19:57:41.872Z,9.80
2023-05-24T20:00:13.932Z,10.38
2023-05-24T20:02:42.046Z,11.67
2023-05-24T20:05:11.254Z,10.70
2023-05-24T20:07:39.388Z,12.80
2023-05-24T20:10:08.840Z,13.18
2023-05-24T20:12:37.029Z,10.43
2023-05-24T20:15:08.310Z,11.75
2023-05-24T20:17:37.808Z,10.20
2023-05-24T20:20:07.179Z,9.88
2023-05-24T20:22:35.356Z,9.73
2023-05-24T20:25:03.517Z,9.85
2023-05-24T20:27:31.635Z,9.52
2023-05-24T20:29:59.733Z,10.55
2023-05-24T20:32:27.867Z,9.00
2023-05-24T20:34:57.463Z,8.63
2023-05-24T20:37:25.613Z,9.85
2023-05-24T20:39:53.770Z,10.93
2023-05-24T20:42:21.969Z,9.13
2023-05-24T20:44:50.116Z,8.13
2023-05-24T20:47:19.201Z,8.70
2023-05-24T20:49:47.373Z,8.45
2023-05-24T20:52:17.013Z,7.70
2023-05-24T20:54:45.475Z,7.70
2023-05-24T20:57:13.964Z,9.88
2023-05-24T20:59:42.147Z,6.85
2023-05-24T21:02:10.282Z,9.57
2023-05-24T21:04:38.366Z,7.82
2023-05-24T21:07:07.920Z,8.95
2023-05-24T21:09:37.404Z,9.10
2023-05-24T21:12:06.663Z,9.27
2023-05-24T21:14:35.262Z,10.75
2023-05-24T21:17:03.437Z,10.02
2023-05-24T21:19:31.602Z,9.65
2023-05-24T21:21:59.750Z,8.35
2023-05-24T21:24:27.836Z,8.85
2023-05-24T21:26:57.300Z,9.18
2023-05-24T21:29:25.444Z,9.43
2023-05-24T21:31:53.561Z,8.43
2023-05-24T21:34:21.655Z,9.25
2023-05-24T21:36:49.748Z,9.98
2023-05-24T21:39:17.858Z,9.18
2023-05-24T21:41:45.952Z,9.23
2023-05-24T21:44:15.533Z,9.10
2023-05-24T21:46:43.662Z,8.68
2023-05-24T21:49:11.782Z,9.35
2023-05-24T21:51:39.931Z,9.07
2023-05-24T21:54:08.036Z,9.38
2023-05-24T21:56:36.121Z,8.68
2023-05-24T21:59:04.261Z,8.85
2023-05-24T22:01:33.753Z,10.45
2023-05-24T22:04:01.938Z,10.85
2023-05-24T22:06:30.076Z,9.55
2023-05-24T22:09:01.903Z,10.20
2023-05-24T22:11:30.092Z,10.25
2023-05-24T22:13:58.215Z,11.38
2023-05-24T22:16:26.324Z,9.82
2023-05-24T22:18:56.680Z,8.48
2023-05-24T22:21:26.223Z,8.23
2023-05-24T22:23:54.377Z,9.50
2023-05-24T22:26:22.735Z,10.20
2023-05-24T22:28:54.788Z,9.52
2023-05-24T22:31:24.681Z,10.17
2023-05-24T22:33:52.831Z,9.23
2023-05-24T22:36:22.349Z,11.23
2023-05-24T22:38:50.531Z,10.15
2023-05-24T22:41:18.735Z,10.60
2023-05-24T22:43:46.851Z,11.35
2023-05-24T22:46:15.024Z,10.70
2023-05-24T22:48:43.116Z,12.32
2023-05-24T22:51:12.517Z,10.85
2023-05-24T22:53:42.026Z,11.93
2023-05-24T22:56:10.659Z,12.60
2023-05-24T22:58:39.072Z,13.48
2023-05-24T23:01:07.376Z,12.18
2023-05-24T23:03:35.705Z,12.23
2023-05-24T23:06:05.665Z,10.68
2023-05-24T23:08:33.847Z,10.40
2023-05-24T23:11:10.636Z,9.07
2023-05-24T23:13:42.103Z,9.10
2023-05-24T23:16:10.273Z,10.10
2023-05-24T23:18:43.121Z,9.00
2023-05-24T23:21:11.247Z,10.50
2023-05-24T23:23:39.462Z,10.35
2023-05-24T23:26:08.998Z,9.68
2023-05-24T23:28:37.248Z,10.18
2023-05-24T23:31:05.432Z,10.85
2023-05-24T23:33:33.546Z,10.50
2023-05-24T23:36:01.669Z,9.65
2023-05-24T23:38:29.818Z,12.10
2023-05-24T23:40:57.940Z,11.73
2023-05-24T23:43:27.454Z,12.68
2023-05-24T23:45:55.703Z,12.45
2023-05-24T23:48:24.597Z,11.80
2023-05-24T23:50:54.592Z,11.23
2023-05-24T23:53:23.120Z,11.43
2023-05-24T23:55:51.197Z,11.98
2023-05-24T23:58:19.308Z,11.93
